03:04
Airports
History
Links
Donate
Help keep this website running!
PayPal
Bitcoin
This page is community maintained. The information is intended for PC simulator navigation or reference.
Always use approved charts for navigation.
2N0
Cecil County Airpark
Cecil County Airpark (2N0)
Elkton, Maryland, United States (21921)
(U)
Lat/Lng:39° 38' 57.4" N / 75° 48' 3.77" W
39.649278 / -75.801048
Elevation:140'ft / 43mMSL
ID / ICAO:2N0
Runways:1
Longest:17-35
Asphalt 756m / 2,482ft
Nearby Weather02:51 GMT 2018-02-21
Nearby weather at KILG, New Castle located 10.5 nautical miles from 2N0
Altimeter: 30.34
Visibility: 5.0 statute miles
Wind: 6 knots (from 170°)
Temp: 13°c / 55°f
Humidity: 93.6%

METAR: KILG 210251Z 17006KT 5SM BR CLR 13/12 A3034 RMK AO2 SLP275 T01280122 51004

(Powered by phpweather)
Nearby VORs <50NM
Nearby NDBs
Runway 17 / 35
Dimensions:756.4 x 12.2m 2482' x 40'ft
Surface:Asphalt
Edge Lights:Low intensity
Runway 17 [A]Runway 35 [B]
Heading:158°TH 338°TH
Lat:
Lng:
39° 39' 8.93"N
75° 48' 9.52"W
39° 38' 45.88"N
75° 47' 58.03"W
ALS:RAIL
User Notes and Comments
39° 38' 57.4" N / 75° 48' 3.77" W
Distance To
Airport ID:
Nearby Airports
(U) Cecil County 6.3 NM
58M SW 215°
(R) Cohen 9.7 NM
4PS7 NW 308°
(U) Summit 9.8 NM
KEVY SSE 155°
4 New London 10.0 NM
N01 NNW 335°
(C) New Castle 10.5 NM
KILG ( WX ) ENE 78°
4 Woodstock 11.1 NM
MD03 S 182°
(U) New Garden 12.6 NM
N57 N
VFR Chart
Flight Planning at SkyVector.com